Time;durP1;ratioP1;P1;durP2;ratioP2;P2;SDS_P1;SDS_P2;PMS_P1;PMS_P2;Temp;Humidity;BMP_temperature;BMP_pressure;BME280_temperature;BME280_humidity;BME280_pressure;Samples;Min_cycle;Max_cycle;Signal;HPM_P1;HPM_P2
2023/11/24 00:01:58;;;;;;;1.60;1.00;;;;;;;6.40;100.00;94935.02;110207;1271;139348;-88
2023/11/24 00:04:25;;;;;;;1.40;1.00;;;;;;;6.42;99.97;94919.63;110349;1273;22359;-88
2023/11/24 00:06:51;;;;;;;2.20;1.00;;;;;;;6.46;100.00;94939.13;110077;1276;138280;-88
2023/11/24 00:09:17;;;;;;;1.70;1.00;;;;;;;6.51;99.96;94942.85;110374;1275;22322;-87
2023/11/24 00:11:46;;;;;;;1.20;0.90;;;;;;;6.56;99.91;94911.11;110342;1273;22458;-88
2023/11/24 00:14:12;;;;;;;1.00;0.90;;;;;;;6.60;99.81;94898.42;110038;1276;138293;-87
2023/11/24 00:16:38;;;;;;;1.40;0.80;;;;;;;6.61;99.66;94899.77;107302;1269;25379;-87
2023/11/24 00:19:06;;;;;;;2.00;0.80;;;;;;;6.61;98.26;94905.30;107288;1270;137955;-87
2023/11/24 00:21:33;;;;;;;1.60;0.80;;;;;;;6.60;98.44;94884.21;107366;1272;23092;-86
2023/11/24 00:24:04;;;;;;;1.30;1.00;;;;;;;6.61;98.01;94885.36;107331;1268;138019;-87
2023/11/24 00:26:31;;;;;;;1.40;1.00;;;;;;;6.62;98.21;94868.14;107413;1273;24292;-87
2023/11/24 00:28:57;;;;;;;1.00;0.80;;;;;;;6.64;97.92;94887.51;107378;1268;24258;-87
2023/11/24 00:31:24;;;;;;;0.70;0.50;;;;;;;6.68;97.74;94879.04;107341;1268;139187;-87
2023/11/24 00:33:51;;;;;;;1.20;0.70;;;;;;;6.69;97.56;94871.50;107414;1268;23361;-86
2023/11/24 00:36:17;;;;;;;0.80;0.70;;;;;;;6.69;97.51;94868.48;107342;1268;138017;-87
2023/11/24 00:38:44;;;;;;;1.30;0.70;;;;;;;6.70;97.98;94869.00;107468;1271;22623;-86
2023/11/24 00:41:13;;;;;;;0.80;0.60;;;;;;;6.70;97.59;94861.19;107296;1272;23001;-87
2023/11/24 00:43:39;;;;;;;0.90;0.80;;;;;;;6.71;96.92;94847.84;107319;1270;137910;-87
2023/11/24 00:46:06;;;;;;;2.60;0.80;;;;;;;6.72;97.01;94844.90;107346;1269;22577;-87
2023/11/24 00:48:32;;;;;;;0.80;0.60;;;;;;;6.74;97.73;94838.39;107255;1270;137983;-87
2023/11/24 00:50:58;;;;;;;1.20;0.80;;;;;;;6.77;97.74;94833.59;107299;1270;22544;-87
2023/11/24 00:53:24;;;;;;;1.20;0.80;;;;;;;6.82;97.55;94839.12;107243;1270;22548;-87
2023/11/24 00:55:50;;;;;;;0.90;0.70;;;;;;;6.86;97.98;94840.13;107184;1270;138291;-87
2023/11/24 00:58:16;;;;;;;0.90;0.60;;;;;;;6.89;98.10;94836.15;107270;1270;25350;-87
2023/11/24 01:00:42;;;;;;;1.20;0.80;;;;;;;6.90;98.55;94831.70;107238;1270;137954;-87
2023/11/24 01:03:08;;;;;;;1.90;0.80;;;;;;;6.90;98.92;94835.91;107388;1268;23954;-87
2023/11/24 01:05:34;;;;;;;0.90;0.80;;;;;;;6.89;98.94;94843.19;107337;1271;22571;-87
2023/11/24 01:08:00;;;;;;;0.80;0.60;;;;;;;6.90;99.31;94844.14;107160;1271;140259;-87
2023/11/24 01:10:27;;;;;;;1.00;0.90;;;;;;;6.90;99.27;94820.63;107281;1269;22536;-86
2023/11/24 01:12:53;;;;;;;0.90;0.80;;;;;;;6.88;99.49;94829.73;107049;1275;138446;-87
2023/11/24 01:15:20;;;;;;;1.50;1.10;;;;;;;6.87;100.00;94823.89;107325;1270;24252;-87
2023/11/24 01:17:46;;;;;;;1.90;1.30;;;;;;;6.84;100.00;94812.56;107315;1270;22595;-87
2023/11/24 01:20:16;;;;;;;1.70;1.00;;;;;;;6.79;100.00;94798.20;107284;1268;137943;-87
2023/11/24 01:22:44;;;;;;;1.20;1.00;;;;;;;6.75;100.00;94790.14;107450;1268;23203;-87
2023/11/24 01:25:11;;;;;;;1.40;1.00;;;;;;;6.73;100.00;94795.34;107406;1268;139125;-87
2023/11/24 01:27:38;;;;;;;1.20;1.00;;;;;;;6.72;100.00;94798.45;107347;1268;26836;-87
2023/11/24 01:30:07;;;;;;;2.40;1.00;;;;;;;6.71;100.00;94803.20;107291;1273;138184;-87
2023/11/24 01:32:32;;;;;;;1.40;1.10;;;;;;;6.71;100.00;94799.67;110332;1270;22953;-87
2023/11/24 01:34:58;;;;;;;0.90;0.80;;;;;;;6.70;100.00;94771.39;108011;1269;22625;-87
2023/11/24 01:37:24;;;;;;;1.10;0.90;;;;;;;6.67;100.00;94779.35;107209;1275;138509;-88
2023/11/24 01:39:50;;;;;;;2.20;1.30;;;;;;;6.66;100.00;94781.66;107026;1273;22598;-87
2023/11/24 01:42:16;;;;;;;1.00;0.90;;;;;;;6.65;100.00;94791.62;107077;1270;139105;-86
2023/11/24 01:44:42;;;;;;;1.00;0.80;;;;;;;6.63;100.00;94771.85;107422;1276;22545;-87
2023/11/24 01:47:08;;;;;;;1.10;1.00;;;;;;;6.63;100.00;94776.65;107461;1271;25289;-87
2023/11/24 01:49:35;;;;;;;1.80;1.20;;;;;;;6.66;100.00;94786.98;107157;1273;138470;-87
2023/11/24 01:52:01;;;;;;;1.20;1.00;;;;;;;6.67;100.00;94783.64;107354;1275;22548;-87
2023/11/24 01:54:27;;;;;;;1.30;1.00;;;;;;;6.66;100.00;94772.44;107286;1270;138729;-86
2023/11/24 01:56:53;;;;;;;1.40;1.00;;;;;;;6.63;100.00;94778.56;107370;1273;25577;-87
2023/11/24 01:59:19;;;;;;;1.10;0.80;;;;;;;6.62;100.00;94767.16;107342;1271;22557;-87
2023/11/24 02:01:45;;;;;;;1.10;0.80;;;;;;;6.60;100.00;94772.72;106920;1270;138729;-87
2023/11/24 02:04:11;;;;;;;1.60;1.10;;;;;;;6.58;100.00;94776.41;107368;1268;22534;-86
2023/11/24 02:06:38;;;;;;;1.40;1.00;;;;;;;6.56;100.00;94772.88;110224;1269;139515;-88
2023/11/24 02:09:04;;;;;;;1.00;0.80;;;;;;;6.53;100.00;94767.64;107637;1273;24228;-88
2023/11/24 02:11:30;;;;;;;1.30;1.10;;;;;;;6.51;100.00;94779.13;107345;1268;22534;-87
2023/11/24 02:13:56;;;;;;;1.70;1.10;;;;;;;6.48;100.00;94788.02;107221;1271;138429;-87
2023/11/24 02:16:22;;;;;;;1.50;1.10;;;;;;;6.47;100.00;94792.89;107281;1269;22537;-88
2023/11/24 02:18:48;;;;;;;1.30;1.20;;;;;;;6.47;100.00;94796.86;107257;1268;139487;-87
2023/11/24 02:21:15;;;;;;;1.40;1.30;;;;;;;6.44;100.00;94802.85;107333;1270;22892;-87
2023/11/24 02:23:42;;;;;;;2.50;1.60;;;;;;;6.40;100.00;94800.35;107317;1268;23322;-87
2023/11/24 02:26:09;;;;;;;2.00;1.40;;;;;;;6.36;100.00;94823.16;107237;1268;138012;-87
2023/11/24 02:28:35;;;;;;;4.60;1.50;;;;;;;6.29;100.00;94853.52;107339;1268;22526;-87
2023/11/24 02:31:03;;;;;;;1.90;1.40;;;;;;;6.24;100.00;94878.78;107310;1268;138374;-86
2023/11/24 02:33:33;;;;;;;1.50;1.20;;;;;;;6.04;100.00;94894.82;107335;1268;24237;-86
2023/11/24 02:36:05;;;;;;;1.80;1.00;;;;;;;5.62;99.97;94921.23;107134;1276;138111;-87
2023/11/24 02:38:32;;;;;;;1.30;0.80;;;;;;;5.15;99.98;94926.68;107294;1271;22564;-87
2023/11/24 02:41:00;;;;;;;1.40;0.70;;;;;;;4.74;99.25;94940.89;110278;1274;22795;-88
2023/11/24 02:43:27;;;;;;;2.00;0.80;;;;;;;4.33;99.39;94945.81;110253;1274;138807;-87
2023/11/24 02:45:53;;;;;;;1.20;0.80;;;;;;;4.03;99.92;94944.98;109743;1276;754665;-87
2023/11/24 02:48:19;;;;;;;2.90;1.30;;;;;;;3.85;100.00;94949.70;107574;1271;138231;-86
2023/11/24 02:50:45;;;;;;;1.90;1.10;;;;;;;3.75;100.00;94947.72;107445;1269;22531;-86
2023/11/24 02:53:10;;;;;;;3.40;2.60;;;;;;;3.67;100.00;94950.44;107450;1269;22548;-85
2023/11/24 02:55:37;;;;;;;6.80;2.50;;;;;;;3.55;100.00;94953.23;107123;1269;138611;-87
2023/11/24 02:58:04;;;;;;;2.00;1.40;;;;;;;3.42;100.00;94965.05;107138;1271;22562;-86
2023/11/24 03:00:30;;;;;;;1.70;1.00;;;;;;;3.32;100.00;94973.18;110220;1270;138793;-86
2023/11/24 03:02:56;;;;;;;1.70;1.50;;;;;;;3.29;100.00;94969.89;110336;1275;22335;-87
2023/11/24 03:05:22;;;;;;;1.20;1.00;;;;;;;3.28;100.00;94969.68;110371;1275;22197;-86
2023/11/24 03:07:49;;;;;;;2.10;1.40;;;;;;;3.27;100.00;94972.31;110243;1271;138857;-87
2023/11/24 03:10:15;;;;;;;1.80;1.50;;;;;;;3.30;100.00;94956.31;107650;1265;24213;-86
2023/11/24 03:12:42;;;;;;;3.10;1.90;;;;;;;3.33;100.00;94942.14;107316;1268;138477;-87
2023/11/24 03:15:11;;;;;;;4.20;2.80;;;;;;;3.36;100.00;94929.08;107367;1271;23015;-86
2023/11/24 03:17:36;;;;;;;4.40;4.00;;;;;;;3.40;100.00;94916.08;110333;1273;22315;-87
2023/11/24 03:20:03;;;;;;;1.50;1.40;;;;;;;3.45;100.00;94916.05;110264;1269;138715;-87
2023/11/24 03:22:29;;;;;;;1.80;1.70;;;;;;;3.47;100.00;94905.69;110361;1274;22309;-87
2023/11/24 03:24:54;;;;;;;1.50;1.40;;;;;;;3.52;100.00;94897.62;110270;1270;139037;-87
2023/11/24 03:27:20;;;;;;;1.50;1.40;;;;;;;3.56;100.00;94892.92;110341;1269;22365;-87
2023/11/24 03:29:46;;;;;;;1.60;1.50;;;;;;;3.60;100.00;94900.16;109665;1269;25295;-86
2023/11/24 03:32:12;;;;;;;2.20;2.00;;;;;;;3.63;100.00;94910.08;107227;1268;137971;-87
2023/11/24 03:34:40;;;;;;;5.40;4.10;;;;;;;3.67;100.00;94916.17;107274;1271;23276;-86
2023/11/24 03:37:06;;;;;;;3.00;2.70;;;;;;;3.67;100.00;94916.30;107203;1269;138849;-86
2023/11/24 03:39:32;;;;;;;2.40;2.10;;;;;;;3.66;100.00;94908.34;107305;1269;22660;-86
2023/11/24 03:41:59;;;;;;;2.10;1.80;;;;;;;3.63;100.00;94906.16;107240;1268;138321;-87
2023/11/24 03:44:24;;;;;;;2.80;2.20;;;;;;;3.62;100.00;94908.20;107378;1271;22663;-86
2023/11/24 03:46:50;;;;;;;3.10;1.90;;;;;;;3.59;100.00;94910.70;107351;1268;22745;-86
2023/11/24 03:49:16;;;;;;;3.50;3.20;;;;;;;3.57;100.00;94912.76;107304;1270;138537;-86
2023/11/24 03:51:42;;;;;;;3.90;1.70;;;;;;;3.56;100.00;94907.23;107498;1254;22530;-87
2023/11/24 03:54:08;;;;;;;1.80;1.60;;;;;;;3.56;100.00;94910.19;107020;1274;138129;-86
2023/11/24 03:56:34;;;;;;;2.10;1.40;;;;;;;3.55;100.00;94908.94;107359;1270;22551;-86
2023/11/24 03:59:00;;;;;;;3.00;1.60;;;;;;;3.54;100.00;94901.44;107303;1259;24261;-87
2023/11/24 04:01:27;;;;;;;1.30;1.20;;;;;;;3.56;100.00;94889.05;107191;1273;138261;-86
2023/11/24 04:03:54;;;;;;;1.70;1.30;;;;;;;3.57;100.00;94879.88;107331;1271;24269;-88
2023/11/24 04:06:20;;;;;;;2.80;1.30;;;;;;;3.59;100.00;94872.64;107227;1268;138324;-87
2023/11/24 04:08:46;;;;;;;2.60;1.50;;;;;;;3.60;100.00;94869.46;107292;1265;22625;-87
2023/11/24 04:11:12;;;;;;;2.20;1.20;;;;;;;3.61;100.00;94864.09;107110;1269;22540;-87
2023/11/24 04:13:39;;;;;;;2.30;2.00;;;;;;;3.59;100.00;94855.67;107319;1270;138106;-87
2023/11/24 04:16:06;;;;;;;2.20;1.80;;;;;;;3.61;100.00;94850.38;107479;1269;27341;-87
2023/11/24 04:18:32;;;;;;;2.00;1.40;;;;;;;3.63;100.00;94857.68;107085;1271;138806;-87
2023/11/24 04:20:58;;;;;;;2.20;1.00;;;;;;;3.64;100.00;94848.84;107420;1271;22679;-88
2023/11/24 04:23:25;;;;;;;2.00;1.10;;;;;;;3.65;100.00;94837.04;107492;1271;25295;-87
2023/11/24 04:25:51;;;;;;;1.50;1.00;;;;;;;3.67;100.00;94832.59;107363;1269;138827;-87
2023/11/24 04:28:16;;;;;;;2.10;1.10;;;;;;;3.68;100.00;94827.31;107382;1273;22995;-87
2023/11/24 04:30:42;;;;;;;2.00;0.90;;;;;;;3.69;100.00;94825.30;107297;1268;138570;-87
2023/11/24 04:33:08;;;;;;;1.70;1.60;;;;;;;3.70;100.00;94813.52;107350;1275;22632;-87
2023/11/24 04:35:34;;;;;;;3.40;2.10;;;;;;;3.71;100.00;94813.11;107468;1269;25236;-87
2023/11/24 04:38:00;;;;;;;1.50;1.00;;;;;;;3.71;100.00;94813.91;107221;1268;138603;-87
2023/11/24 04:40:26;;;;;;;1.70;1.00;;;;;;;3.69;100.00;94812.31;107265;1270;22546;-87
2023/11/24 04:42:52;;;;;;;1.50;1.00;;;;;;;3.68;100.00;94806.88;107217;1268;138644;-87
2023/11/24 04:45:18;;;;;;;2.90;1.20;;;;;;;3.69;100.00;94798.67;107397;1271;23161;-88
2023/11/24 04:47:44;;;;;;;1.20;0.90;;;;;;;3.68;100.00;94795.62;107276;1268;22531;-87
2023/11/24 04:50:10;;;;;;;2.20;1.10;;;;;;;3.69;100.00;94785.95;107123;1272;138064;-88
2023/11/24 04:52:36;;;;;;;4.00;1.50;;;;;;;3.70;100.00;94777.81;107477;1268;25301;-88
2023/11/24 04:55:03;;;;;;;2.40;1.00;;;;;;;3.70;100.00;94772.95;107355;1268;138413;-88
2023/11/24 04:57:33;;;;;;;3.60;1.60;;;;;;;3.71;100.00;94777.95;107376;1271;22763;-87
2023/11/24 05:00:00;;;;;;;2.50;0.90;;;;;;;3.73;100.00;94771.29;107286;1269;138723;-87
2023/11/24 05:02:27;;;;;;;2.90;2.10;;;;;;;3.71;100.00;94766.69;107170;1271;24341;-88
2023/11/24 05:04:56;;;;;;;3.10;1.40;;;;;;;3.72;100.00;94763.48;110142;1272;22324;-88
2023/11/24 05:07:23;;;;;;;1.80;1.20;;;;;;;3.73;100.00;94759.08;110265;1275;138559;-88
2023/11/24 05:09:50;;;;;;;5.70;4.50;;;;;;;3.73;100.00;94753.55;110389;1269;23019;-88
2023/11/24 05:12:16;;;;;;;2.80;2.00;;;;;;;3.75;100.00;94747.16;110257;1269;139636;-88
2023/11/24 05:14:42;;;;;;;4.40;1.40;;;;;;;3.76;100.00;94741.11;108168;1269;22531;-87
2023/11/24 05:17:08;;;;;;;1.70;1.60;;;;;;;3.78;100.00;94734.89;107370;1271;25588;-87
2023/11/24 05:19:34;;;;;;;4.00;1.80;;;;;;;3.79;100.00;94743.64;107412;1269;138082;-87
2023/11/24 05:22:00;;;;;;;1.90;1.00;;;;;;;3.78;100.00;94753.71;107387;1272;24292;-87
2023/11/24 05:24:26;;;;;;;18.80;7.10;;;;;;;3.77;100.00;94751.48;106995;1271;138245;-88
2023/11/24 05:26:53;;;;;;;78.10;26.40;;;;;;;3.76;100.00;94759.45;107266;1271;22541;-88
2023/11/24 05:29:19;;;;;;;93.10;28.90;;;;;;;3.73;100.00;94764.23;107421;1270;22635;-87
2023/11/24 05:31:44;;;;;;;135.10;44.70;;;;;;;3.72;100.00;94760.34;107285;1270;138460;-87
2023/11/24 05:34:11;;;;;;;33.90;13.00;;;;;;;3.73;100.00;94757.86;107424;1271;22592;-87
2023/11/24 05:36:37;;;;;;;47.80;16.00;;;;;;;3.73;100.00;94748.77;107326;1273;138734;-88
2023/11/24 05:39:05;;;;;;;96.60;33.10;;;;;;;3.72;100.00;94747.92;107347;1265;22599;-87
2023/11/24 05:41:32;;;;;;;218.10;69.80;;;;;;;3.72;100.00;94751.00;107289;1271;22553;-87
2023/11/24 05:43:58;;;;;;;41.00;13.70;;;;;;;3.72;100.00;94750.65;107046;1276;139362;-87
2023/11/24 05:46:24;;;;;;;36.90;11.70;;;;;;;3.71;100.00;94747.40;107197;1276;24266;-88
2023/11/24 05:48:50;;;;;;;10.10;4.30;;;;;;;3.69;100.00;94754.61;107227;1270;139108;-88
2023/11/24 05:51:16;;;;;;;120.80;41.00;;;;;;;3.68;100.00;94754.05;107341;1268;22590;-87
2023/11/24 05:53:42;;;;;;;105.20;32.50;;;;;;;3.68;100.00;94760.56;107342;1268;23918;-87
2023/11/24 05:56:08;;;;;;;215.80;58.50;;;;;;;3.67;100.00;94758.94;107329;1274;139184;-87
2023/11/24 05:58:34;;;;;;;28.50;10.10;;;;;;;3.67;100.00;94767.63;107458;1270;22924;-88
2023/11/24 06:01:00;;;;;;;30.80;13.10;;;;;;;3.67;100.00;94759.84;107341;1270;139421;-87
2023/11/24 06:03:27;;;;;;;13.10;7.10;;;;;;;3.66;100.00;94772.95;107497;1268;23928;-87
2023/11/24 06:05:53;;;;;;;6.70;3.40;;;;;;;3.67;100.00;94787.23;107432;1268;24231;-88
2023/11/24 06:08:20;;;;;;;14.10;8.80;;;;;;;3.66;100.00;94787.81;107222;1271;24257;-87
2023/11/24 06:10:50;;;;;;;7.80;3.80;;;;;;;3.65;100.00;94791.32;107293;1268;23001;-86
2023/11/24 06:13:16;;;;;;;4.80;3.00;;;;;;;3.65;100.00;94777.30;107375;1268;138012;-87
2023/11/24 06:15:42;;;;;;;6.20;3.20;;;;;;;3.66;100.00;94776.08;107200;1271;23216;-87
2023/11/24 06:18:08;;;;;;;4.70;2.80;;;;;;;3.65;100.00;94774.95;107250;1268;138337;-88
2023/11/24 06:20:34;;;;;;;4.90;2.40;;;;;;;3.63;100.00;94795.72;107383;1269;22582;-87
2023/11/24 06:22:59;;;;;;;6.10;3.30;;;;;;;3.57;100.00;94796.90;107409;1268;22601;-86
2023/11/24 06:25:26;;;;;;;4.60;3.60;;;;;;;3.53;100.00;94794.08;107253;1271;138021;-88
2023/11/24 06:27:52;;;;;;;4.30;3.00;;;;;;;3.48;100.00;94821.39;107307;1272;22549;-87
2023/11/24 06:30:18;;;;;;;4.30;2.70;;;;;;;3.38;100.00;94850.66;107235;1271;138650;-87
2023/11/24 06:32:44;;;;;;;3.00;2.40;;;;;;;3.24;100.00;94850.66;107314;1272;24269;-87
2023/11/24 06:35:10;;;;;;;4.00;2.70;;;;;;;3.12;100.00;94854.13;107461;1269;22635;-87
2023/11/24 06:37:36;;;;;;;4.00;2.70;;;;;;;3.01;100.00;94850.16;107357;1270;138026;-87
2023/11/24 06:40:03;;;;;;;30.00;10.40;;;;;;;2.91;100.00;94840.48;107152;1271;24318;-87
2023/11/24 06:42:30;;;;;;;51.20;16.30;;;;;;;2.87;100.00;94840.41;107159;1261;139149;-87
2023/11/24 06:44:56;;;;;;;20.60;7.90;;;;;;;2.90;100.00;94845.81;107396;1269;24245;-87
2023/11/24 06:47:23;;;;;;;28.30;11.10;;;;;;;2.90;100.00;94858.09;107393;1271;22583;-87
2023/11/24 06:49:50;;;;;;;48.70;17.10;;;;;;;2.91;100.00;94861.73;107374;1271;138483;-87
2023/11/24 06:52:16;;;;;;;13.20;5.40;;;;;;;2.90;100.00;94873.17;107240;1276;23009;-88
2023/11/24 06:54:42;;;;;;;12.00;5.60;;;;;;;2.90;100.00;94875.27;107063;1271;138490;-87
2023/11/24 06:57:08;;;;;;;63.50;27.20;;;;;;;2.92;100.00;94879.79;107326;1274;24410;-87
2023/11/24 06:59:34;;;;;;;127.90;40.20;;;;;;;2.94;100.00;94888.77;107152;1271;23679;-87
2023/11/24 07:01:59;;;;;;;28.40;10.10;;;;;;;2.95;100.00;94885.21;107278;1273;139320;-87
2023/11/24 07:04:25;;;;;;;98.80;31.50;;;;;;;2.95;100.00;94881.17;107431;1269;25432;-87
2023/11/24 07:06:51;;;;;;;42.90;14.20;;;;;;;2.95;100.00;94876.55;107232;1273;138652;-87
2023/11/24 07:09:19;;;;;;;45.60;15.50;;;;;;;2.95;100.00;94864.95;107422;1269;22550;-87
2023/11/24 07:11:47;;;;;;;37.20;13.30;;;;;;;2.94;100.00;94858.70;107489;1269;22526;-87
2023/11/24 07:14:14;;;;;;;15.00;6.60;;;;;;;2.94;100.00;94855.11;107275;1267;138267;-87
2023/11/24 07:16:40;;;;;;;21.60;7.90;;;;;;;2.96;100.00;94865.27;107357;1269;22534;-88
2023/11/24 07:19:06;;;;;;;9.50;4.90;;;;;;;2.96;100.00;94864.48;107270;1270;138132;-87
2023/11/24 07:21:32;;;;;;;18.50;7.70;;;;;;;2.96;100.00;94866.86;107290;1273;22559;-87
2023/11/24 07:23:57;;;;;;;10.50;6.10;;;;;;;2.96;100.00;94863.55;107318;1268;138906;-87
2023/11/24 07:26:23;;;;;;;117.00;53.30;;;;;;;2.97;100.00;94862.65;107149;1271;22549;-88
2023/11/24 07:28:50;;;;;;;76.10;38.50;;;;;;;2.98;100.00;94864.60;107377;1271;22533;-87
2023/11/24 07:31:17;;;;;;;29.40;16.60;;;;;;;2.99;100.00;94857.72;107293;1271;138381;-87
2023/11/24 07:33:47;;;;;;;20.60;8.50;;;;;;;2.99;100.00;94859.84;107370;1271;24253;-87
2023/11/24 07:36:13;;;;;;;16.10;7.60;;;;;;;2.99;100.00;94866.36;108280;1273;138918;-87
2023/11/24 07:38:39;;;;;;;10.10;5.20;;;;;;;3.00;100.00;94868.87;107160;1271;24731;-87
2023/11/24 07:41:08;;;;;;;5.90;4.00;;;;;;;3.00;100.00;94855.40;107365;1274;25463;-87
2023/11/24 07:43:34;;;;;;;6.40;3.80;;;;;;;3.02;100.00;94863.64;107520;1269;138115;-88
2023/11/24 07:46:00;;;;;;;15.00;9.90;;;;;;;3.02;100.00;94872.67;107289;1268;22536;-87
2023/11/24 07:48:26;;;;;;;28.80;14.00;;;;;;;2.99;100.00;94870.00;107325;1269;138413;-87
2023/11/24 07:50:52;;;;;;;21.90;12.10;;;;;;;3.00;100.00;94871.70;107378;1268;24229;-87
2023/11/24 07:53:18;;;;;;;26.40;12.70;;;;;;;3.02;100.00;94874.56;107256;1272;25513;-87
2023/11/24 07:55:44;;;;;;;12.40;7.00;;;;;;;3.05;100.00;94870.08;107098;1276;139398;-87
2023/11/24 07:58:10;;;;;;;23.10;12.20;;;;;;;3.08;100.00;94866.05;107391;1269;23342;-87
2023/11/24 08:00:39;;;;;;;22.90;12.70;;;;;;;3.11;100.00;94865.34;107275;1274;138631;-88
2023/11/24 08:03:05;;;;;;;15.00;10.00;;;;;;;3.15;100.00;94866.23;107178;1271;23705;-87
2023/11/24 08:05:31;;;;;;;17.50;11.10;;;;;;;3.19;100.00;94865.73;107330;1271;26737;-87
2023/11/24 08:07:58;;;;;;;27.40;15.20;;;;;;;3.23;100.00;94870.99;107269;1269;138868;-87
2023/11/24 08:10:24;;;;;;;21.30;13.20;;;;;;;3.27;100.00;94867.67;107391;1269;22542;-88
2023/11/24 08:12:50;;;;;;;16.50;11.10;;;;;;;3.28;100.00;94870.20;107272;1275;138551;-87
2023/11/24 08:15:16;;;;;;;16.80;9.30;;;;;;;3.28;100.00;94878.77;107357;1273;22656;-88
2023/11/24 08:17:43;;;;;;;13.80;7.90;;;;;;;3.27;100.00;94884.20;107363;1265;22542;-87
2023/11/24 08:20:13;;;;;;;23.70;12.50;;;;;;;3.26;100.00;94889.77;107289;1274;138672;-87
2023/11/24 08:22:39;;;;;;;17.40;8.60;;;;;;;3.27;100.00;94895.30;107385;1268;22596;-87
2023/11/24 08:25:09;;;;;;;25.20;10.80;;;;;;;3.26;100.00;94889.13;106984;1272;138322;-87
2023/11/24 08:27:35;;;;;;;11.80;5.80;;;;;;;3.25;100.00;94878.40;107228;1275;22542;-88
2023/11/24 08:30:05;;;;;;;9.70;4.80;;;;;;;3.24;100.00;94879.11;107263;1273;139377;-88
2023/11/24 08:32:31;;;;;;;15.40;6.20;;;;;;;3.22;100.00;94874.63;107330;1269;24208;-88
2023/11/24 08:34:57;;;;;;;11.80;4.60;;;;;;;3.23;100.00;94875.10;107092;1277;22635;-89
2023/11/24 08:37:23;;;;;;;13.90;4.40;;;;;;;3.22;100.00;94874.46;107259;1268;138407;-87
2023/11/24 08:39:49;;;;;;;12.30;5.00;;;;;;;3.18;100.00;94872.75;107283;1269;24188;-87
2023/11/24 08:42:15;;;;;;;12.50;4.60;;;;;;;3.13;100.00;94870.90;107221;1270;138825;-87
2023/11/24 08:44:41;;;;;;;11.40;4.70;;;;;;;3.08;100.00;94866.72;107260;1274;24189;-87
2023/11/24 08:47:07;;;;;;;12.40;4.80;;;;;;;3.05;100.00;94865.84;107441;1270;25347;-87
2023/11/24 08:49:33;;;;;;;8.10;3.40;;;;;;;3.04;100.00;94868.59;107230;1274;138866;-87
2023/11/24 08:51:59;;;;;;;11.50;4.30;;;;;;;3.00;100.00;94873.56;107357;1272;24235;-87
2023/11/24 08:54:25;;;;;;;9.20;3.70;;;;;;;2.94;100.00;94881.43;107254;1269;138741;-88
2023/11/24 08:56:51;;;;;;;6.10;3.00;;;;;;;2.89;100.00;94870.52;107384;1273;24180;-87
2023/11/24 08:59:18;;;;;;;5.10;3.20;;;;;;;2.84;100.00;94876.27;107418;1269;23424;-88
2023/11/24 09:01:49;;;;;;;10.20;4.30;;;;;;;2.76;100.00;94871.09;107224;1269;138731;-87
2023/11/24 09:04:15;;;;;;;8.50;3.90;;;;;;;2.73;100.00;94858.44;110398;1270;22140;-88
2023/11/24 09:06:41;;;;;;;9.50;5.10;;;;;;;2.71;100.00;94847.79;110267;1276;138918;-88
2023/11/24 09:09:07;;;;;;;9.80;6.10;;;;;;;2.70;100.00;94846.45;109506;1272;25476;-88
2023/11/24 09:11:34;;;;;;;14.50;7.30;;;;;;;2.75;100.00;94842.17;107231;1263;25207;-88
2023/11/24 09:14:05;;;;;;;9.40;6.20;;;;;;;2.79;100.00;94840.21;110047;1276;139147;-88
2023/11/24 09:16:32;;;;;;;14.80;6.70;;;;;;;2.80;100.00;94843.70;108637;1276;22565;-88
2023/11/24 09:18:58;;;;;;;10.80;5.10;;;;;;;2.80;100.00;94839.95;108985;1269;138547;-87
2023/11/24 09:21:24;;;;;;;14.20;6.20;;;;;;;2.83;100.00;94834.75;107297;1271;25370;-87
2023/11/24 09:23:50;;;;;;;16.40;6.10;;;;;;;2.89;100.00;94830.02;107362;1273;22634;-88
2023/11/24 09:26:16;;;;;;;20.00;9.70;;;;;;;2.96;100.00;94819.46;107091;1273;138861;-87
2023/11/24 09:28:42;;;;;;;14.40;8.00;;;;;;;3.04;100.00;94808.83;107259;1273;24137;-88
2023/11/24 09:31:08;;;;;;;10.40;6.00;;;;;;;3.11;100.00;94808.52;107247;1269;138143;-87
2023/11/24 09:33:38;;;;;;;14.10;7.90;;;;;;;3.16;100.00;94806.02;107337;1272;24411;-87
2023/11/24 09:36:06;;;;;;;14.20;5.70;;;;;;;3.22;100.00;94801.21;107074;1271;138333;-87
2023/11/24 09:38:33;;;;;;;14.60;8.20;;;;;;;3.26;100.00;94797.95;107438;1269;22541;-87
2023/11/24 09:41:11;;;;;;;15.60;7.70;;;;;;;3.31;100.00;94795.47;107264;1275;22548;-88
2023/11/24 09:43:40;;;;;;;11.80;5.90;;;;;;;3.35;100.00;94790.83;107273;1268;138551;-87
2023/11/24 09:46:06;;;;;;;13.20;5.80;;;;;;;3.39;100.00;94790.59;107165;1272;25489;-87
2023/11/24 09:48:33;;;;;;;9.70;4.40;;;;;;;3.39;100.00;94784.36;107064;1277;138614;-88
2023/11/24 09:51:03;;;;;;;6.60;3.20;;;;;;;3.40;100.00;94782.95;107054;1272;22538;-88
2023/11/24 09:53:35;;;;;;;6.40;3.60;;;;;;;3.37;100.00;94769.59;107051;1277;22649;-88
2023/11/24 09:56:02;;;;;;;13.90;5.20;;;;;;;3.36;100.00;94766.18;107272;1269;138395;-88
2023/11/24 09:58:31;;;;;;;9.40;3.70;;;;;;;3.36;100.00;94763.42;107533;1269;24244;-87
2023/11/24 10:01:09;;;;;;;5.40;3.20;;;;;;;3.37;100.00;94756.95;107263;1272;138150;-88
2023/11/24 10:03:38;;;;;;;9.70;4.90;;;;;;;3.38;100.00;94751.00;107211;1270;22544;-87
2023/11/24 10:06:08;;;;;;;7.50;3.70;;;;;;;3.36;100.00;94753.98;107216;1263;138322;-88
2023/11/24 10:08:36;;;;;;;15.50;9.20;;;;;;;3.35;100.00;94756.83;110362;1276;22323;-88
2023/11/24 10:11:31;;;;;;;11.50;6.90;;;;;;;3.36;100.00;94755.76;109785;1277;22541;-88
2023/11/24 10:13:57;;;;;;;9.40;5.90;;;;;;;3.35;100.00;94748.80;107277;1275;138156;-88
2023/11/24 10:16:23;;;;;;;10.90;5.50;;;;;;;3.29;100.00;94736.25;107513;1268;24062;-87
2023/11/24 10:18:50;;;;;;;7.20;4.00;;;;;;;3.29;100.00;94725.51;107392;1271;138919;-87
2023/11/24 10:21:16;;;;;;;12.70;6.60;;;;;;;3.36;100.00;94708.28;107186;1270;22540;-87
2023/11/24 10:23:42;;;;;;;8.60;4.00;;;;;;;3.44;100.00;94694.01;107429;1274;22638;-88
2023/11/24 10:26:13;;;;;;;8.50;5.30;;;;;;;3.53;100.00;94693.21;107357;1270;138005;-87
2023/11/24 10:28:40;;;;;;;9.20;5.30;;;;;;;3.66;100.00;94694.98;108053;1269;24257;-88
2023/11/24 10:31:07;;;;;;;5.80;3.50;;;;;;;3.75;100.00;94686.46;107245;1274;138878;-87
2023/11/24 10:33:34;;;;;;;6.50;3.40;;;;;;;3.77;100.00;94678.96;107340;1269;24222;-87
2023/11/24 10:36:00;;;;;;;4.00;2.80;;;;;;;3.79;100.00;94665.42;107189;1269;139086;-87
2023/11/24 10:38:32;;;;;;;4.90;2.90;;;;;;;3.77;100.00;94659.95;107403;1269;22583;-87
2023/11/24 10:41:01;;;;;;;7.20;4.40;;;;;;;3.73;100.00;94648.08;107471;1273;22533;-87
2023/11/24 10:43:31;;;;;;;5.20;2.70;;;;;;;3.74;100.00;94639.46;107321;1273;138038;-86
2023/11/24 10:45:58;;;;;;;5.00;3.10;;;;;;;3.72;100.00;94635.38;107153;1271;22550;-87
2023/11/24 10:48:45;;;;;;;7.10;3.70;;;;;;;3.68;100.00;94629.73;106988;1270;138171;-86
2023/11/24 10:51:21;;;;;;;9.70;5.80;;;;;;;3.65;100.00;94627.13;107275;1275;25220;-87
2023/11/24 10:53:52;;;;;;;6.50;4.00;;;;;;;3.63;100.00;94624.11;107432;1276;22534;-87
2023/11/24 10:56:20;;;;;;;15.30;8.00;;;;;;;3.64;100.00;94624.23;107037;1273;139122;-87
2023/11/24 10:58:52;;;;;;;9.70;4.80;;;;;;;3.65;100.00;94616.90;107418;1269;22539;-87
2023/11/24 11:01:18;;;;;;;;;;;;;;;3.66;100.00;94610.50;110272;1276;139871;-88
2023/11/24 11:03:45;;;;;;;11.00;5.20;;;;;;;3.69;100.00;94605.08;110200;1276;22419;-87
2023/11/24 11:06:35;;;;;;;8.30;4.40;;;;;;;3.77;100.00;94598.48;109048;1276;138934;-87
2023/11/24 11:09:19;;;;;;;16.80;8.70;;;;;;;3.89;100.00;94586.92;107170;1277;22539;-86
2023/11/24 11:12:13;;;;;;;19.80;9.00;;;;;;;3.98;100.00;94592.52;107195;1275;22629;-87
2023/11/24 11:14:40;;;;;;;4.60;2.90;;;;;;;4.10;100.00;94590.69;107495;1270;22996;-87
2023/11/24 11:17:14;;;;;;;7.30;4.40;;;;;;;4.17;100.00;94588.59;107345;1273;22664;-87
2023/11/24 11:19:43;;;;;;;12.70;5.20;;;;;;;4.25;100.00;94596.83;107265;1269;138329;-87